Time;durP1;ratioP1;P1;durP2;ratioP2;P2;SDS_P1;SDS_P2;PMS_P1;PMS_P2;Temp;Humidity;BMP_temperature;BMP_pressure;BME280_temperature;BME280_humidity;BME280_pressure;Samples;Min_cycle;Max_cycle;Signal;HPM_P1;HPM_P2
2022/08/16 00:02:52;;;;;;;3.95;3.55;;;31.20;45.40;;;;;;20876596;28;20112;-72
2022/08/16 00:12:52;;;;;;;3.57;3.27;;;31.20;45.30;;;;;;20892443;28;20052;-73
2022/08/16 00:22:53;;;;;;;3.30;2.97;;;31.20;45.40;;;;;;20890945;28;20036;-72
2022/08/16 00:32:55;;;;;;;3.50;2.87;;;31.20;45.40;;;;;;20873026;28;20044;-73
2022/08/16 00:42:56;;;;;;;3.77;2.70;;;31.20;45.40;;;;;;20855980;28;20371;-74
2022/08/16 00:52:56;;;;;;;4.68;3.13;;;31.20;45.40;;;;;;20857106;28;20072;-74
2022/08/16 01:02:58;;;;;;;3.05;2.75;;;31.20;45.40;;;;;;20871598;28;20064;-75
2022/08/16 01:13:21;;;;;;;4.28;3.22;;;31.20;45.40;;;;;;21263388;22;20080;-72
2022/08/16 01:23:50;;;;;;;3.35;2.80;;;31.20;45.50;;;;;;20871890;28;20033;-74
2022/08/16 01:33:51;;;;;;;4.00;3.50;;;31.20;45.50;;;;;;20871180;28;20052;-72
2022/08/16 01:43:52;;;;;;;4.45;2.88;;;31.10;45.40;;;;;;20870728;28;20033;-73
2022/08/16 01:53:53;;;;;;;3.07;2.77;;;31.10;45.40;;;;;;20870701;28;20407;-72
2022/08/16 02:04:00;;;;;;;3.65;2.85;;;31.10;45.40;;;;;;20871192;28;20040;-73
2022/08/16 02:14:01;;;;;;;2.95;2.53;;;31.10;45.50;;;;;;20869724;28;20041;-73
2022/08/16 02:24:02;;;;;;;3.10;2.65;;;31.10;45.50;;;;;;20884510;28;20175;-72
2022/08/16 02:34:04;;;;;;;4.10;3.17;;;31.10;45.40;;;;;;20899737;28;20041;-72
2022/08/16 02:44:11;;;;;;;3.45;2.72;;;31.10;45.70;;;;;;20883739;28;20033;-72
2022/08/16 02:54:13;;;;;;;3.97;3.00;;;31.10;45.50;;;;;;20882494;28;20111;-72
2022/08/16 03:04:15;;;;;;;3.92;2.70;;;31.10;45.40;;;;;;20881353;28;20068;-72
2022/08/16 03:14:16;;;;;;;4.38;3.17;;;31.10;45.50;;;;;;20880246;28;20064;-73
2022/08/16 03:24:17;;;;;;;3.35;3.03;;;31.10;45.50;;;;;;20880148;28;20626;-73
2022/08/16 03:34:18;;;;;;;3.75;3.25;;;31.10;45.50;;;;;;20862494;28;20041;-73
2022/08/16 03:44:20;;;;;;;3.30;2.88;;;31.10;45.40;;;;;;20878251;28;20029;-72
2022/08/16 03:54:21;;;;;;;3.03;2.65;;;31.10;45.50;;;;;;20861076;28;20044;-73
2022/08/16 04:04:23;;;;;;;3.30;2.87;;;31.10;45.40;;;;;;20876772;28;20616;-72
2022/08/16 04:14:25;;;;;;;3.05;2.70;;;31.10;45.40;;;;;;20876428;28;20033;-72
2022/08/16 04:24:27;;;;;;;3.57;3.17;;;31.10;45.40;;;;;;20874606;28;20032;-71
2022/08/16 04:34:29;;;;;;;3.55;2.80;;;31.10;45.40;;;;;;20874247;28;20083;-72
2022/08/16 04:44:31;;;;;;;3.90;3.40;;;31.10;45.40;;;;;;20873355;28;20040;-71
2022/08/16 04:54:32;;;;;;;4.03;3.28;;;31.10;45.40;;;;;;20873039;28;20137;-73
2022/08/16 05:04:33;;;;;;;3.43;2.63;;;31.10;45.40;;;;;;20872703;28;20127;-72
2022/08/16 05:14:34;;;;;;;3.55;3.15;;;31.10;45.40;;;;;;20855885;28;20649;-71
2022/08/16 05:24:35;;;;;;;3.22;2.92;;;31.00;45.30;;;;;;20871687;28;20037;-74
2022/08/16 05:34:36;;;;;;;3.75;2.67;;;31.00;45.30;;;;;;20881425;28;20064;-71
2022/08/16 05:44:37;;;;;;;3.28;2.70;;;31.00;45.20;;;;;;20887744;28;20458;-72
2022/08/16 05:54:38;;;;;;;3.33;3.03;;;31.10;45.30;;;;;;20886638;28;20387;-72
2022/08/16 06:04:39;;;;;;;4.18;2.85;;;31.10;45.30;;;;;;20886278;28;20037;-71
2022/08/16 06:14:44;;;;;;;3.78;2.88;;;31.00;45.30;;;;;;20885503;28;20087;-73
2022/08/16 06:24:45;;;;;;;4.15;3.35;;;31.00;45.30;;;;;;20884590;28;20486;-72
2022/08/16 06:34:46;;;;;;;3.60;2.70;;;31.00;45.30;;;;;;20883587;28;20095;-71
2022/08/16 06:44:48;;;;;;;3.00;2.38;;;31.00;45.40;;;;;;20881725;28;20552;-72
2022/08/16 06:55:07;;;;;;;3.10;2.50;;;31.00;45.50;;;;;;20884504;28;20183;-73
2022/08/16 07:05:10;;;;;;;3.20;2.50;;;31.00;45.50;;;;;;20865152;28;20044;-72
2022/08/16 07:15:11;;;;;;;3.03;2.67;;;31.00;45.50;;;;;;20880970;28;20099;-72
2022/08/16 07:25:12;;;;;;;4.60;2.70;;;31.00;45.60;;;;;;20896190;28;20029;-72
2022/08/16 07:35:13;;;;;;;3.42;2.50;;;31.00;45.50;;;;;;20879658;28;20398;-72
2022/08/16 07:45:14;;;;;;;4.07;2.92;;;31.10;45.40;;;;;;20878105;28;20478;-75
2022/08/16 07:55:20;;;;;;;3.22;2.60;;;31.10;45.40;;;;;;20862264;28;20522;-72
2022/08/16 08:05:22;;;;;;;3.28;2.45;;;31.10;45.30;;;;;;20876819;28;20111;-74
2022/08/16 08:15:23;;;;;;;4.00;3.07;;;31.20;45.20;;;;;;20875749;28;20447;-73
2022/08/16 08:25:24;;;;;;;3.42;2.60;;;31.20;45.20;;;;;;20874909;28;20037;-72
2022/08/16 08:35:25;;;;;;;3.30;2.77;;;31.20;45.20;;;;;;20874863;28;20128;-72
2022/08/16 08:45:25;;;;;;;2.72;2.28;;;31.20;45.20;;;;;;20873931;28;20279;-72
2022/08/16 08:55:26;;;;;;;3.42;2.38;;;31.20;45.30;;;;;;20873124;28;20060;-73
2022/08/16 09:05:27;;;;;;;3.03;2.17;;;31.20;45.40;;;;;;20888478;28;20116;-72
2022/08/16 09:15:29;;;;;;;2.83;2.38;;;31.10;45.30;;;;;;20887984;28;20045;-72
2022/08/16 09:25:29;;;;;;;2.93;2.27;;;31.10;45.50;;;;;;20872397;28;20107;-73
2022/08/16 09:35:30;;;;;;;3.00;2.37;;;31.00;45.50;;;;;;20870736;28;20041;-72
2022/08/16 09:45:37;;;;;;;3.42;2.40;;;31.00;45.60;;;;;;20887223;28;20781;-72
2022/08/16 09:55:39;;;;;;;2.50;2.17;;;31.00;45.70;;;;;;20888315;28;20064;-73
2022/08/16 10:05:40;;;;;;;2.20;1.83;;;30.90;45.80;;;;;;20869559;28;20056;-72
2022/08/16 10:15:42;;;;;;;3.10;2.30;;;30.80;45.70;;;;;;20871977;28;20600;-71
2022/08/16 10:25:44;;;;;;;2.37;1.97;;;30.90;45.70;;;;;;20868119;28;20036;-72
2022/08/16 10:35:44;;;;;;;2.00;1.80;;;30.90;45.40;;;;;;20883838;28;20041;-71
2022/08/16 10:45:46;;;;;;;3.33;2.70;;;31.00;45.40;;;;;;20866420;28;20032;-71
2022/08/16 10:55:47;;;;;;;2.13;1.75;;;31.00;45.30;;;;;;20898753;28;20045;-70
2022/08/16 11:05:47;;;;;;;2.63;2.03;;;31.00;45.20;;;;;;20880828;28;20043;-71
2022/08/16 11:15:48;;;;;;;3.17;2.28;;;31.10;44.90;;;;;;20898371;28;20147;-74
2022/08/16 11:25:49;;;;;;;2.63;2.05;;;31.20;44.70;;;;;;20896722;28;20040;-72
2022/08/16 11:35:50;;;;;;;2.58;2.03;;;31.30;44.60;;;;;;20895028;28;20040;-72
2022/08/16 11:45:50;;;;;;;2.35;2.05;;;31.40;44.40;;;;;;20878116;28;20083;-72
2022/08/16 11:55:52;;;;;;;2.65;2.00;;;31.40;44.20;;;;;;20893868;28;20044;-74
2022/08/16 12:05:53;;;;;;;2.42;1.98;;;31.50;44.10;;;;;;20893104;28;20041;-72
2022/08/16 12:15:55;;;;;;;2.10;1.80;;;31.60;43.90;;;;;;20891836;28;20081;-75
2022/08/16 12:25:56;;;;;;;2.25;1.85;;;31.70;43.80;;;;;;20875148;28;20104;-71
2022/08/16 12:35:57;;;;;;;1.97;1.77;;;31.70;43.60;;;;;;20873900;28;20048;-71
2022/08/16 12:45:58;;;;;;;3.67;1.73;;;31.80;43.40;;;;;;20889165;28;20025;-71
2022/08/16 12:55:59;;;;;;;2.28;1.90;;;31.90;43.30;;;;;;20872801;28;20357;-71
2022/08/16 13:05:59;;;;;;;2.42;1.73;;;31.90;43.10;;;;;;20888457;28;20037;-72
2022/08/16 13:16:01;;;;;;;2.35;2.03;;;32.00;43.90;;;;;;20872377;28;20040;-72
2022/08/16 13:26:02;;;;;;;2.22;1.80;;;31.90;43.20;;;;;;20887494;28;20033;-71
2022/08/16 13:36:08;;;;;;;2.47;1.70;;;31.90;43.20;;;;;;20887137;28;20090;-72
2022/08/16 13:46:08;;;;;;;1.92;1.73;;;31.90;43.20;;;;;;20870707;28;20025;-74
2022/08/16 13:56:09;;;;;;;2.07;1.87;;;31.90;43.20;;;;;;20880816;28;20036;-72
2022/08/16 14:06:09;;;;;;;2.95;1.80;;;31.90;43.20;;;;;;20903160;28;20318;-72
2022/08/16 14:16:10;;;;;;;2.23;1.60;;;31.90;43.20;;;;;;20885173;28;20442;-71
2022/08/16 14:26:11;;;;;;;1.98;1.60;;;31.90;43.30;;;;;;20884483;28;20637;-74
2022/08/16 14:36:12;;;;;;;2.05;1.55;;;31.80;44.00;;;;;;20884226;28;20044;-72
2022/08/16 14:46:12;;;;;;;1.85;1.60;;;31.80;43.40;;;;;;20898902;28;20057;-71
2022/08/16 14:56:13;;;;;;;1.27;1.02;;;31.70;43.50;;;;;;20898779;28;20037;-72
2022/08/16 15:06:13;;;;;;;2.33;1.92;;;31.80;43.60;;;;;;20880219;28;20455;-72
2022/08/16 15:16:14;;;;;;;2.45;1.75;;;31.80;43.70;;;;;;20897029;28;20404;-73
2022/08/16 15:26:14;;;;;;;1.67;1.30;;;31.70;43.70;;;;;;20879652;28;20112;-73
2022/08/16 15:36:19;;;;;;;1.45;1.35;;;31.70;43.70;;;;;;20862813;28;20048;-72
2022/08/16 15:46:23;;;;;;;1.83;1.63;;;31.60;43.80;;;;;;20877910;28;20467;-72
2022/08/16 15:56:23;;;;;;;2.17;1.45;;;31.50;44.00;;;;;;20894421;28;20048;-71
2022/08/16 16:06:24;;;;;;;2.50;1.83;;;31.40;44.10;;;;;;20876729;28;20028;-73
2022/08/16 16:16:24;;;;;;;2.13;1.87;;;31.40;44.20;;;;;;20893197;28;20386;-73
2022/08/16 16:26:25;;;;;;;2.28;1.60;;;31.50;44.20;;;;;;20875244;28;20040;-72
2022/08/16 16:36:28;;;;;;;1.67;1.57;;;31.60;44.10;;;;;;20874446;28;20063;-71
2022/08/16 16:46:34;;;;;;;1.85;1.60;;;31.60;43.90;;;;;;20873643;28;20041;-72
2022/08/16 16:56:35;;;;;;;1.30;1.20;;;31.60;43.90;;;;;;20856863;28;20048;-72
2022/08/16 17:06:35;;;;;;;1.83;1.30;;;31.60;44.00;;;;;;20872421;28;20425;-73
2022/08/16 17:16:36;;;;;;;2.17;1.50;;;31.60;44.00;;;;;;20871411;28;20467;-73
2022/08/16 17:26:37;;;;;;;1.50;1.40;;;31.50;44.10;;;;;;20870494;28;20037;-72
2022/08/16 17:36:38;;;;;;;2.07;1.80;;;31.40;44.20;;;;;;20854483;28;20072;-72
2022/08/16 17:46:38;;;;;;;2.33;1.60;;;31.30;44.40;;;;;;20886798;28;20413;-73
2022/08/16 17:56:39;;;;;;;2.30;1.63;;;31.20;44.50;;;;;;20886170;28;20107;-73
2022/08/16 18:06:40;;;;;;;1.70;1.25;;;31.20;44.60;;;;;;20886659;28;20542;-72
2022/08/16 18:16:41;;;;;;;1.38;1.23;;;31.10;44.70;;;;;;20886067;28;20040;-71
2022/08/16 18:26:41;;;;;;;1.67;1.30;;;31.10;44.80;;;;;;20885089;28;20039;-72
2022/08/16 18:36:42;;;;;;;1.45;1.23;;;31.10;44.90;;;;;;20884717;28;20119;-72
2022/08/16 18:46:44;;;;;;;1.50;1.38;;;31.10;44.90;;;;;;20866155;28;20040;-71
2022/08/16 18:56:45;;;;;;;1.73;1.33;;;31.10;44.90;;;;;;20865605;28;20514;-73
2022/08/16 19:06:46;;;;;;;2.78;1.30;;;31.10;45.00;;;;;;20881289;28;20491;-72
2022/08/16 19:16:46;;;;;;;1.60;1.23;;;31.10;45.00;;;;;;20898440;28;20136;-72
2022/08/16 19:26:48;;;;;;;1.33;1.20;;;31.10;45.10;;;;;;20896536;28;20025;-74
2022/08/16 19:36:48;;;;;;;2.13;1.63;;;31.10;45.10;;;;;;20878954;28;20043;-72
2022/08/16 19:46:49;;;;;;;2.22;1.38;;;31.10;45.10;;;;;;20912276;28;20036;-72
2022/08/16 19:56:50;;;;;;;2.10;1.48;;;31.10;45.20;;;;;;20876939;28;20475;-74
2022/08/16 20:06:51;;;;;;;2.20;1.55;;;31.10;45.10;;;;;;20893413;28;20086;-73
2022/08/16 20:16:52;;;;;;;2.13;1.85;;;31.10;45.10;;;;;;20892646;28;20037;-72
2022/08/16 20:26:53;;;;;;;2.00;1.70;;;31.10;45.10;;;;;;20875636;28;20059;-71
2022/08/16 20:36:54;;;;;;;1.90;1.70;;;31.20;45.10;;;;;;20891431;28;20049;-72
2022/08/16 20:46:54;;;;;;;2.28;1.83;;;31.10;45.10;;;;;;20889892;28;20323;-72
2022/08/16 20:56:55;;;;;;;2.65;1.67;;;31.20;45.10;;;;;;20872558;28;20040;-72
2022/08/16 21:06:57;;;;;;;1.90;1.63;;;31.20;45.10;;;;;;20887508;28;20033;-72
2022/08/16 21:16:57;;;;;;;2.00;1.33;;;31.10;45.10;;;;;;20887955;28;20048;-72
2022/08/16 21:26:58;;;;;;;2.13;1.70;;;31.10;45.10;;;;;;20871080;28;20033;-71
2022/08/16 21:36:59;;;;;;;1.95;1.73;;;31.20;45.10;;;;;;20870854;28;20064;-73
2022/08/16 21:46:59;;;;;;;2.08;1.65;;;31.20;45.20;;;;;;20887831;28;20060;-73
2022/08/16 21:57:00;;;;;;;1.73;1.58;;;31.10;45.10;;;;;;20870510;28;20132;-73
2022/08/16 22:07:00;;;;;;;2.95;2.10;;;31.10;45.10;;;;;;20871031;28;20139;-72
2022/08/16 22:17:01;;;;;;;2.92;1.77;;;31.20;45.20;;;;;;20879384;28;20124;-72
2022/08/16 22:27:01;;;;;;;2.40;1.88;;;31.10;45.20;;;;;;20884993;28;20411;-72
2022/08/16 22:37:02;;;;;;;2.20;1.85;;;31.10;45.20;;;;;;20884201;28;21301;-71
2022/08/16 22:47:03;;;;;;;2.60;2.05;;;31.10;45.20;;;;;;20883713;28;20518;-73
2022/08/16 22:57:04;;;;;;;2.00;1.80;;;31.10;45.20;;;;;;20898992;28;20549;-72
2022/08/16 23:07:05;;;;;;;2.70;1.90;;;31.10;45.20;;;;;;20865255;28;20033;-72
2022/08/16 23:17:06;;;;;;;2.05;1.85;;;31.10;45.30;;;;;;20897899;28;20406;-72
2022/08/16 23:27:07;;;;;;;2.78;1.95;;;31.10;45.30;;;;;;20895862;28;20033;-74
2022/08/16 23:37:08;;;;;;;2.20;2.00;;;31.10;45.20;;;;;;20896319;28;20037;-73
2022/08/16 23:47:08;;;;;;;2.50;2.30;;;31.10;45.20;;;;;;20895151;28;20029;-72
2022/08/16 23:57:09;;;;;;;2.50;2.30;;;31.10;45.30;;;;;;20894661;28;20040;-71
